sensor_id;sensor_type;location;lat;lon;timestamp;P1;durP1;ratioP1;P2;durP2;ratioP2
8100;SDS011;4093;53.470;9.832;2022-10-14T00:00:08;42.67;;;27.63;;
8100;SDS011;4093;53.470;9.832;2022-10-14T00:02:36;45.83;;;28.37;;
8100;SDS011;4093;53.470;9.832;2022-10-14T00:05:04;46.23;;;28.67;;
8100;SDS011;4093;53.470;9.832;2022-10-14T00:07:33;48.83;;;28.87;;
8100;SDS011;4093;53.470;9.832;2022-10-14T00:10:02;50.77;;;30.13;;
8100;SDS011;4093;53.470;9.832;2022-10-14T00:12:31;52.13;;;31.47;;
8100;SDS011;4093;53.470;9.832;2022-10-14T00:14:59;51.73;;;30.30;;
8100;SDS011;4093;53.470;9.832;2022-10-14T00:17:28;52.50;;;31.00;;
8100;SDS011;4093;53.470;9.832;2022-10-14T00:19:56;46.90;;;29.63;;
8100;SDS011;4093;53.470;9.832;2022-10-14T00:22:24;51.90;;;30.57;;
8100;SDS011;4093;53.470;9.832;2022-10-14T00:24:53;55.93;;;31.30;;
8100;SDS011;4093;53.470;9.832;2022-10-14T00:27:20;51.97;;;32.10;;
8100;SDS011;4093;53.470;9.832;2022-10-14T00:29:48;47.27;;;29.43;;
8100;SDS011;4093;53.470;9.832;2022-10-14T00:32:16;58.90;;;35.33;;
8100;SDS011;4093;53.470;9.832;2022-10-14T00:34:45;59.43;;;34.90;;
8100;SDS011;4093;53.470;9.832;2022-10-14T00:37:13;51.90;;;31.20;;
8100;SDS011;4093;53.470;9.832;2022-10-14T00:39:41;54.20;;;30.87;;
8100;SDS011;4093;53.470;9.832;2022-10-14T00:42:10;53.77;;;33.27;;
8100;SDS011;4093;53.470;9.832;2022-10-14T00:45:00;54.90;;;30.63;;
8100;SDS011;4093;53.470;9.832;2022-10-14T00:47:32;54.57;;;29.90;;
8100;SDS011;4093;53.470;9.832;2022-10-14T00:50:01;51.70;;;31.37;;
8100;SDS011;4093;53.470;9.832;2022-10-14T00:52:29;53.43;;;30.63;;
8100;SDS011;4093;53.470;9.832;2022-10-14T00:54:59;46.70;;;30.30;;
8100;SDS011;4093;53.470;9.832;2022-10-14T00:57:29;48.20;;;30.37;;
8100;SDS011;4093;53.470;9.832;2022-10-14T01:00:00;49.57;;;31.23;;
8100;SDS011;4093;53.470;9.832;2022-10-14T01:02:31;48.47;;;29.97;;
8100;SDS011;4093;53.470;9.832;2022-10-14T01:04:59;50.87;;;30.40;;
8100;SDS011;4093;53.470;9.832;2022-10-14T01:07:33;50.47;;;30.60;;
8100;SDS011;4093;53.470;9.832;2022-10-14T01:10:12;47.33;;;30.50;;
8100;SDS011;4093;53.470;9.832;2022-10-14T01:12:46;45.73;;;28.13;;
8100;SDS011;4093;53.470;9.832;2022-10-14T01:15:24;46.10;;;30.20;;
8100;SDS011;4093;53.470;9.832;2022-10-14T01:18:01;45.37;;;29.20;;
8100;SDS011;4093;53.470;9.832;2022-10-14T01:20:42;46.43;;;29.43;;
8100;SDS011;4093;53.470;9.832;2022-10-14T01:23:26;44.87;;;28.53;;
8100;SDS011;4093;53.470;9.832;2022-10-14T01:26:17;45.73;;;27.00;;
8100;SDS011;4093;53.470;9.832;2022-10-14T01:28:53;45.33;;;28.13;;
8100;SDS011;4093;53.470;9.832;2022-10-14T01:31:34;47.03;;;29.47;;
8100;SDS011;4093;53.470;9.832;2022-10-14T01:34:05;49.53;;;26.73;;
8100;SDS011;4093;53.470;9.832;2022-10-14T01:36:40;45.70;;;27.57;;
8100;SDS011;4093;53.470;9.832;2022-10-14T01:39:11;46.97;;;28.43;;
8100;SDS011;4093;53.470;9.832;2022-10-14T01:41:45;49.07;;;29.03;;
8100;SDS011;4093;53.470;9.832;2022-10-14T01:44:16;46.70;;;27.67;;
8100;SDS011;4093;53.470;9.832;2022-10-14T01:46:49;48.40;;;29.03;;
8100;SDS011;4093;53.470;9.832;2022-10-14T01:49:20;49.50;;;27.53;;
8100;SDS011;4093;53.470;9.832;2022-10-14T01:51:53;56.10;;;33.07;;
8100;SDS011;4093;53.470;9.832;2022-10-14T01:54:26;53.40;;;29.93;;
8100;SDS011;4093;53.470;9.832;2022-10-14T01:56:58;51.20;;;29.67;;
8100;SDS011;4093;53.470;9.832;2022-10-14T01:59:30;44.40;;;26.73;;
8100;SDS011;4093;53.470;9.832;2022-10-14T02:02:02;51.83;;;30.60;;
8100;SDS011;4093;53.470;9.832;2022-10-14T02:04:30;51.00;;;29.77;;
8100;SDS011;4093;53.470;9.832;2022-10-14T02:06:59;49.57;;;29.97;;
8100;SDS011;4093;53.470;9.832;2022-10-14T02:09:37;49.47;;;27.83;;
8100;SDS011;4093;53.470;9.832;2022-10-14T02:12:12;52.87;;;30.03;;
8100;SDS011;4093;53.470;9.832;2022-10-14T02:14:53;52.03;;;29.17;;
8100;SDS011;4093;53.470;9.832;2022-10-14T02:17:30;54.13;;;29.93;;
8100;SDS011;4093;53.470;9.832;2022-10-14T02:20:06;54.67;;;31.20;;
8100;SDS011;4093;53.470;9.832;2022-10-14T02:22:43;52.80;;;29.93;;
8100;SDS011;4093;53.470;9.832;2022-10-14T02:25:15;53.57;;;29.83;;
8100;SDS011;4093;53.470;9.832;2022-10-14T02:27:48;57.53;;;30.97;;
8100;SDS011;4093;53.470;9.832;2022-10-14T02:30:18;48.97;;;29.27;;
8100;SDS011;4093;53.470;9.832;2022-10-14T02:32:48;54.60;;;30.87;;
8100;SDS011;4093;53.470;9.832;2022-10-14T02:35:17;56.70;;;31.23;;
8100;SDS011;4093;53.470;9.832;2022-10-14T02:37:47;63.23;;;32.20;;
8100;SDS011;4093;53.470;9.832;2022-10-14T02:40:19;53.13;;;30.30;;
8100;SDS011;4093;53.470;9.832;2022-10-14T02:42:52;50.93;;;29.70;;
8100;SDS011;4093;53.470;9.832;2022-10-14T02:45:20;57.87;;;32.40;;
8100;SDS011;4093;53.470;9.832;2022-10-14T02:47:52;59.83;;;31.40;;
8100;SDS011;4093;53.470;9.832;2022-10-14T02:50:20;65.47;;;33.63;;
8100;SDS011;4093;53.470;9.832;2022-10-14T02:52:48;58.87;;;31.77;;
8100;SDS011;4093;53.470;9.832;2022-10-14T02:55:16;60.77;;;31.67;;
8100;SDS011;4093;53.470;9.832;2022-10-14T02:57:44;66.20;;;32.07;;
8100;SDS011;4093;53.470;9.832;2022-10-14T03:00:12;64.70;;;34.73;;
8100;SDS011;4093;53.470;9.832;2022-10-14T03:02:40;61.20;;;31.83;;
8100;SDS011;4093;53.470;9.832;2022-10-14T03:05:09;58.73;;;32.90;;
8100;SDS011;4093;53.470;9.832;2022-10-14T03:07:37;61.87;;;32.47;;
8100;SDS011;4093;53.470;9.832;2022-10-14T03:10:05;58.50;;;30.33;;
8100;SDS011;4093;53.470;9.832;2022-10-14T03:12:33;62.93;;;33.43;;
8100;SDS011;4093;53.470;9.832;2022-10-14T03:15:01;65.03;;;32.83;;
8100;SDS011;4093;53.470;9.832;2022-10-14T03:17:28;65.17;;;34.17;;
8100;SDS011;4093;53.470;9.832;2022-10-14T03:19:56;62.27;;;33.40;;
8100;SDS011;4093;53.470;9.832;2022-10-14T03:22:26;64.77;;;35.30;;
8100;SDS011;4093;53.470;9.832;2022-10-14T03:24:54;68.90;;;33.57;;
8100;SDS011;4093;53.470;9.832;2022-10-14T03:27:21;65.20;;;32.57;;
8100;SDS011;4093;53.470;9.832;2022-10-14T03:29:49;58.67;;;33.60;;
8100;SDS011;4093;53.470;9.832;2022-10-14T03:32:17;62.27;;;34.80;;
8100;SDS011;4093;53.470;9.832;2022-10-14T03:34:45;74.80;;;35.13;;
8100;SDS011;4093;53.470;9.832;2022-10-14T03:37:13;61.07;;;31.93;;
8100;SDS011;4093;53.470;9.832;2022-10-14T03:39:42;73.27;;;35.77;;
8100;SDS011;4093;53.470;9.832;2022-10-14T03:42:10;64.03;;;34.77;;
8100;SDS011;4093;53.470;9.832;2022-10-14T03:44:37;66.03;;;34.43;;
8100;SDS011;4093;53.470;9.832;2022-10-14T03:47:05;67.57;;;35.27;;
8100;SDS011;4093;53.470;9.832;2022-10-14T03:49:33;68.33;;;35.10;;
8100;SDS011;4093;53.470;9.832;2022-10-14T03:52:01;70.70;;;36.40;;
8100;SDS011;4093;53.470;9.832;2022-10-14T03:54:28;76.73;;;36.33;;
8100;SDS011;4093;53.470;9.832;2022-10-14T03:56:57;74.60;;;36.93;;
8100;SDS011;4093;53.470;9.832;2022-10-14T03:59:25;67.37;;;33.97;;
8100;SDS011;4093;53.470;9.832;2022-10-14T04:01:53;79.17;;;35.87;;
8100;SDS011;4093;53.470;9.832;2022-10-14T04:04:21;75.07;;;34.70;;
8100;SDS011;4093;53.470;9.832;2022-10-14T04:06:48;72.23;;;34.60;;
8100;SDS011;4093;53.470;9.832;2022-10-14T04:09:16;79.70;;;36.43;;
8100;SDS011;4093;53.470;9.832;2022-10-14T04:11:44;83.47;;;38.80;;
8100;SDS011;4093;53.470;9.832;2022-10-14T04:14:14;79.67;;;35.07;;
8100;SDS011;4093;53.470;9.832;2022-10-14T04:16:41;84.97;;;37.43;;
8100;SDS011;4093;53.470;9.832;2022-10-14T04:19:15;87.23;;;39.13;;
8100;SDS011;4093;53.470;9.832;2022-10-14T04:21:42;84.73;;;38.37;;
8100;SDS011;4093;53.470;9.832;2022-10-14T04:24:11;81.13;;;36.97;;
8100;SDS011;4093;53.470;9.832;2022-10-14T04:26:39;91.03;;;41.23;;
8100;SDS011;4093;53.470;9.832;2022-10-14T04:29:06;90.80;;;40.97;;
8100;SDS011;4093;53.470;9.832;2022-10-14T04:31:36;85.70;;;39.50;;
8100;SDS011;4093;53.470;9.832;2022-10-14T04:34:03;78.13;;;36.17;;
8100;SDS011;4093;53.470;9.832;2022-10-14T04:36:31;89.97;;;39.00;;
8100;SDS011;4093;53.470;9.832;2022-10-14T04:38:59;87.60;;;39.40;;
8100;SDS011;4093;53.470;9.832;2022-10-14T04:41:27;88.77;;;41.37;;
8100;SDS011;4093;53.470;9.832;2022-10-14T04:43:54;77.50;;;38.20;;
8100;SDS011;4093;53.470;9.832;2022-10-14T04:46:22;80.83;;;38.10;;
8100;SDS011;4093;53.470;9.832;2022-10-14T04:48:51;90.47;;;39.63;;
8100;SDS011;4093;53.470;9.832;2022-10-14T04:51:19;84.47;;;38.97;;
8100;SDS011;4093;53.470;9.832;2022-10-14T04:53:47;88.80;;;39.13;;
8100;SDS011;4093;53.470;9.832;2022-10-14T04:56:15;85.03;;;39.47;;
8100;SDS011;4093;53.470;9.832;2022-10-14T04:58:42;93.93;;;40.20;;
8100;SDS011;4093;53.470;9.832;2022-10-14T05:01:10;76.10;;;38.03;;
8100;SDS011;4093;53.470;9.832;2022-10-14T05:03:38;92.03;;;38.63;;
8100;SDS011;4093;53.470;9.832;2022-10-14T05:06:07;85.87;;;38.70;;
8100;SDS011;4093;53.470;9.832;2022-10-14T05:08:35;80.47;;;37.77;;
8100;SDS011;4093;53.470;9.832;2022-10-14T05:11:03;81.27;;;38.87;;
8100;SDS011;4093;53.470;9.832;2022-10-14T05:13:31;90.63;;;40.93;;
8100;SDS011;4093;53.470;9.832;2022-10-14T05:15:59;77.47;;;37.10;;
8100;SDS011;4093;53.470;9.832;2022-10-14T05:18:27;85.77;;;42.30;;
8100;SDS011;4093;53.470;9.832;2022-10-14T05:20:56;82.40;;;40.43;;
8100;SDS011;4093;53.470;9.832;2022-10-14T05:23:26;90.93;;;41.83;;
8100;SDS011;4093;53.470;9.832;2022-10-14T05:25:54;82.23;;;38.80;;
8100;SDS011;4093;53.470;9.832;2022-10-14T05:28:22;86.83;;;38.33;;
8100;SDS011;4093;53.470;9.832;2022-10-14T05:30:50;88.27;;;40.20;;
8100;SDS011;4093;53.470;9.832;2022-10-14T05:33:17;89.67;;;41.60;;
8100;SDS011;4093;53.470;9.832;2022-10-14T05:35:45;77.83;;;40.43;;
8100;SDS011;4093;53.470;9.832;2022-10-14T05:38:24;86.97;;;41.23;;
8100;SDS011;4093;53.470;9.832;2022-10-14T05:40:54;80.10;;;40.97;;
8100;SDS011;4093;53.470;9.832;2022-10-14T05:43:23;76.97;;;39.83;;
8100;SDS011;4093;53.470;9.832;2022-10-14T05:45:57;77.87;;;39.80;;
8100;SDS011;4093;53.470;9.832;2022-10-14T05:48:25;72.57;;;38.10;;
8100;SDS011;4093;53.470;9.832;2022-10-14T05:50:53;70.13;;;38.10;;
8100;SDS011;4093;53.470;9.832;2022-10-14T05:53:21;78.27;;;41.50;;
8100;SDS011;4093;53.470;9.832;2022-10-14T05:55:48;76.43;;;40.33;;
8100;SDS011;4093;53.470;9.832;2022-10-14T05:58:17;70.57;;;37.83;;
8100;SDS011;4093;53.470;9.832;2022-10-14T06:00:45;87.20;;;41.63;;
8100;SDS011;4093;53.470;9.832;2022-10-14T06:03:13;85.73;;;42.77;;
8100;SDS011;4093;53.470;9.832;2022-10-14T06:05:41;75.03;;;40.33;;
8100;SDS011;4093;53.470;9.832;2022-10-14T06:08:08;76.83;;;40.70;;
8100;SDS011;4093;53.470;9.832;2022-10-14T06:10:36;74.10;;;41.53;;
8100;SDS011;4093;53.470;9.832;2022-10-14T06:13:04;82.50;;;42.93;;
8100;SDS011;4093;53.470;9.832;2022-10-14T06:15:34;77.43;;;41.20;;
8100;SDS011;4093;53.470;9.832;2022-10-14T06:18:02;80.47;;;43.90;;
8100;SDS011;4093;53.470;9.832;2022-10-14T06:20:30;81.40;;;43.77;;
8100;SDS011;4093;53.470;9.832;2022-10-14T06:22:58;88.67;;;48.03;;
8100;SDS011;4093;53.470;9.832;2022-10-14T06:25:26;84.83;;;45.37;;
8100;SDS011;4093;53.470;9.832;2022-10-14T06:27:54;85.20;;;45.97;;
8100;SDS011;4093;53.470;9.832;2022-10-14T06:30:22;82.00;;;42.90;;
8100;SDS011;4093;53.470;9.832;2022-10-14T06:32:52;93.17;;;47.73;;
8100;SDS011;4093;53.470;9.832;2022-10-14T06:35:20;84.27;;;45.70;;
8100;SDS011;4093;53.470;9.832;2022-10-14T06:37:48;92.17;;;47.67;;
8100;SDS011;4093;53.470;9.832;2022-10-14T06:40:15;91.00;;;46.70;;
8100;SDS011;4093;53.470;9.832;2022-10-14T06:42:43;90.93;;;46.97;;
8100;SDS011;4093;53.470;9.832;2022-10-14T06:45:11;90.13;;;47.37;;
8100;SDS011;4093;53.470;9.832;2022-10-14T06:47:39;88.00;;;45.20;;
8100;SDS011;4093;53.470;9.832;2022-10-14T06:50:08;88.17;;;44.00;;
8100;SDS011;4093;53.470;9.832;2022-10-14T06:52:36;89.53;;;47.13;;
8100;SDS011;4093;53.470;9.832;2022-10-14T06:55:04;92.03;;;48.27;;
8100;SDS011;4093;53.470;9.832;2022-10-14T06:57:33;84.67;;;47.40;;
8100;SDS011;4093;53.470;9.832;2022-10-14T07:00:01;86.63;;;47.40;;
8100;SDS011;4093;53.470;9.832;2022-10-14T07:02:29;88.43;;;46.87;;
8100;SDS011;4093;53.470;9.832;2022-10-14T07:04:56;87.53;;;45.43;;
8100;SDS011;4093;53.470;9.832;2022-10-14T07:07:26;89.93;;;45.87;;
8100;SDS011;4093;53.470;9.832;2022-10-14T07:09:53;82.60;;;47.13;;
8100;SDS011;4093;53.470;9.832;2022-10-14T07:12:21;82.97;;;45.10;;
8100;SDS011;4093;53.470;9.832;2022-10-14T07:14:50;74.37;;;41.67;;
8100;SDS011;4093;53.470;9.832;2022-10-14T07:17:18;70.13;;;41.63;;
8100;SDS011;4093;53.470;9.832;2022-10-14T07:19:46;71.47;;;41.43;;
8100;SDS011;4093;53.470;9.832;2022-10-14T07:22:14;64.00;;;38.70;;
8100;SDS011;4093;53.470;9.832;2022-10-14T07:24:44;63.60;;;38.90;;
8100;SDS011;4093;53.470;9.832;2022-10-14T07:27:11;63.63;;;38.30;;
8100;SDS011;4093;53.470;9.832;2022-10-14T07:29:41;59.83;;;36.27;;
8100;SDS011;4093;53.470;9.832;2022-10-14T07:32:09;52.80;;;34.53;;
8100;SDS011;4093;53.470;9.832;2022-10-14T07:34:37;55.53;;;35.17;;
8100;SDS011;4093;53.470;9.832;2022-10-14T07:37:04;51.40;;;36.17;;
8100;SDS011;4093;53.470;9.832;2022-10-14T07:39:32;54.83;;;34.33;;
8100;SDS011;4093;53.470;9.832;2022-10-14T07:42:01;54.17;;;36.10;;
8100;SDS011;4093;53.470;9.832;2022-10-14T07:44:29;53.83;;;34.43;;
8100;SDS011;4093;53.470;9.832;2022-10-14T07:46:57;49.40;;;32.40;;
8100;SDS011;4093;53.470;9.832;2022-10-14T07:49:26;47.40;;;31.97;;
8100;SDS011;4093;53.470;9.832;2022-10-14T07:51:55;52.17;;;33.20;;
8100;SDS011;4093;53.470;9.832;2022-10-14T07:54:25;50.30;;;32.07;;
8100;SDS011;4093;53.470;9.832;2022-10-14T07:56:54;57.53;;;35.90;;
8100;SDS011;4093;53.470;9.832;2022-10-14T07:59:24;52.10;;;34.37;;
8100;SDS011;4093;53.470;9.832;2022-10-14T08:01:52;47.37;;;32.53;;
8100;SDS011;4093;53.470;9.832;2022-10-14T08:04:22;51.17;;;33.87;;
8100;SDS011;4093;53.470;9.832;2022-10-14T08:06:50;47.83;;;32.70;;
8100;SDS011;4093;53.470;9.832;2022-10-14T08:09:18;48.60;;;33.90;;
8100;SDS011;4093;53.470;9.832;2022-10-14T08:11:46;49.60;;;33.50;;
8100;SDS011;4093;53.470;9.832;2022-10-14T08:14:15;46.47;;;32.37;;
8100;SDS011;4093;53.470;9.832;2022-10-14T08:16:44;45.60;;;30.50;;
8100;SDS011;4093;53.470;9.832;2022-10-14T08:19:12;50.03;;;32.23;;
8100;SDS011;4093;53.470;9.832;2022-10-14T08:21:40;54.20;;;32.40;;
8100;SDS011;4093;53.470;9.832;2022-10-14T08:24:09;49.77;;;32.03;;
8100;SDS011;4093;53.470;9.832;2022-10-14T08:26:38;46.33;;;30.47;;
8100;SDS011;4093;53.470;9.832;2022-10-14T08:29:08;50.50;;;32.30;;
8100;SDS011;4093;53.470;9.832;2022-10-14T08:31:37;50.67;;;32.70;;
8100;SDS011;4093;53.470;9.832;2022-10-14T08:34:06;47.70;;;31.33;;
8100;SDS011;4093;53.470;9.832;2022-10-14T08:36:35;44.13;;;29.43;;
8100;SDS011;4093;53.470;9.832;2022-10-14T08:39:04;48.50;;;31.75;;
8100;SDS011;4093;53.470;9.832;2022-10-14T08:41:39;40.35;;;27.85;;
8100;SDS011;4093;53.470;9.832;2022-10-14T08:44:34;41.13;;;28.40;;
8100;SDS011;4093;53.470;9.832;2022-10-14T08:47:09;40.65;;;27.95;;
8100;SDS011;4093;53.470;9.832;2022-10-14T08:49:45;40.10;;;28.27;;
8100;SDS011;4093;53.470;9.832;2022-10-14T08:52:21;41.97;;;29.92;;
8100;SDS011;4093;53.470;9.832;2022-10-14T08:54:53;41.88;;;28.80;;
8100;SDS011;4093;53.470;9.832;2022-10-14T08:57:27;45.45;;;30.20;;
8100;SDS011;4093;53.470;9.832;2022-10-14T08:59:58;40.33;;;28.97;;
8100;SDS011;4093;53.470;9.832;2022-10-14T09:02:32;42.80;;;30.13;;
8100;SDS011;4093;53.470;9.832;2022-10-14T09:05:08;42.07;;;27.83;;
8100;SDS011;4093;53.470;9.832;2022-10-14T09:07:40;41.37;;;27.37;;
8100;SDS011;4093;53.470;9.832;2022-10-14T09:10:10;45.53;;;29.60;;
8100;SDS011;4093;53.470;9.832;2022-10-14T09:12:44;45.40;;;29.63;;
8100;SDS011;4093;53.470;9.832;2022-10-14T09:15:12;43.50;;;29.50;;
8100;SDS011;4093;53.470;9.832;2022-10-14T09:17:49;41.13;;;28.57;;
8100;SDS011;4093;53.470;9.832;2022-10-14T09:20:26;44.13;;;30.47;;
8100;SDS011;4093;53.470;9.832;2022-10-14T09:22:56;44.27;;;30.13;;
8100;SDS011;4093;53.470;9.832;2022-10-14T09:25:33;42.53;;;27.93;;
8100;SDS011;4093;53.470;9.832;2022-10-14T09:28:01;38.83;;;27.13;;
8100;SDS011;4093;53.470;9.832;2022-10-14T09:30:29;41.23;;;27.10;;
8100;SDS011;4093;53.470;9.832;2022-10-14T09:33:02;37.27;;;26.30;;
8100;SDS011;4093;53.470;9.832;2022-10-14T09:35:33;37.37;;;25.63;;
8100;SDS011;4093;53.470;9.832;2022-10-14T09:38:03;34.10;;;24.07;;
8100;SDS011;4093;53.470;9.832;2022-10-14T09:40:31;37.50;;;26.13;;
8100;SDS011;4093;53.470;9.832;2022-10-14T09:43:02;40.90;;;25.80;;
8100;SDS011;4093;53.470;9.832;2022-10-14T09:45:50;38.17;;;25.17;;
8100;SDS011;4093;53.470;9.832;2022-10-14T09:48:29;37.20;;;24.87;;
8100;SDS011;4093;53.470;9.832;2022-10-14T09:51:06;36.53;;;24.93;;
8100;SDS011;4093;53.470;9.832;2022-10-14T09:53:36;37.27;;;24.67;;
8100;SDS011;4093;53.470;9.832;2022-10-14T09:56:07;40.80;;;25.47;;
8100;SDS011;4093;53.470;9.832;2022-10-14T09:58:37;34.90;;;23.33;;
8100;SDS011;4093;53.470;9.832;2022-10-14T10:01:13;31.63;;;22.77;;
8100;SDS011;4093;53.470;9.832;2022-10-14T10:03:42;34.20;;;22.87;;
8100;SDS011;4093;53.470;9.832;2022-10-14T10:06:13;34.80;;;24.20;;
8100;SDS011;4093;53.470;9.832;2022-10-14T10:08:53;32.57;;;22.90;;
8100;SDS011;4093;53.470;9.832;2022-10-14T10:11:31;31.40;;;22.53;;
8100;SDS011;4093;53.470;9.832;2022-10-14T10:14:14;35.13;;;24.03;;
8100;SDS011;4093;53.470;9.832;2022-10-14T10:16:43;30.40;;;22.37;;
8100;SDS011;4093;53.470;9.832;2022-10-14T10:22:15;37.07;;;23.57;;
8100;SDS011;4093;53.470;9.832;2022-10-14T10:24:48;31.33;;;22.37;;
8100;SDS011;4093;53.470;9.832;2022-10-14T10:27:18;35.47;;;23.27;;
8100;SDS011;4093;53.470;9.832;2022-10-14T10:29:50;33.70;;;23.47;;
8100;SDS011;4093;53.470;9.832;2022-10-14T10:32:22;32.93;;;22.97;;
8100;SDS011;4093;53.470;9.832;2022-10-14T10:35:04;33.97;;;23.73;;
8100;SDS011;4093;53.470;9.832;2022-10-14T10:37:45;31.93;;;22.93;;
8100;SDS011;4093;53.470;9.832;2022-10-14T10:40:29;32.93;;;20.60;;
8100;SDS011;4093;53.470;9.832;2022-10-14T10:43:12;30.97;;;22.23;;
8100;SDS011;4093;53.470;9.832;2022-10-14T10:46:00;32.60;;;22.47;;
8100;SDS011;4093;53.470;9.832;2022-10-14T10:48:38;28.00;;;20.13;;
8100;SDS011;4093;53.470;9.832;2022-10-14T10:51:11;30.30;;;21.27;;
8100;SDS011;4093;53.470;9.832;2022-10-14T10:53:51;32.30;;;22.37;;
8100;SDS011;4093;53.470;9.832;2022-10-14T10:56:34;33.90;;;22.20;;
8100;SDS011;4093;53.470;9.832;2022-10-14T10:59:29;35.33;;;23.37;;
8100;SDS011;4093;53.470;9.832;2022-10-14T11:02:15;29.87;;;21.27;;
8100;SDS011;4093;53.470;9.832;2022-10-14T11:05:02;30.73;;;21.13;;
8100;SDS011;4093;53.470;9.832;2022-10-14T11:07:35;34.97;;;23.33;;
8100;SDS011;4093;53.470;9.832;2022-10-14T11:10:32;31.57;;;20.83;;
8100;SDS011;4093;53.470;9.832;2022-10-14T11:13:27;31.33;;;22.43;;
8100;SDS011;4093;53.470;9.832;2022-10-14T11:16:03;33.87;;;20.87;;
8100;SDS011;4093;53.470;9.832;2022-10-14T11:18:38;31.43;;;21.37;;
8100;SDS011;4093;53.470;9.832;2022-10-14T11:21:16;30.50;;;20.73;;
8100;SDS011;4093;53.470;9.832;2022-10-14T11:23:50;33.97;;;23.23;;
8100;SDS011;4093;53.470;9.832;2022-10-14T11:26:32;33.00;;;22.83;;
8100;SDS011;4093;53.470;9.832;2022-10-14T11:29:15;37.20;;;22.97;;
8100;SDS011;4093;53.470;9.832;2022-10-14T11:31:57;32.33;;;21.93;;
8100;SDS011;4093;53.470;9.832;2022-10-14T11:34:36;36.97;;;25.10;;
8100;SDS011;4093;53.470;9.832;2022-10-14T11:37:13;35.20;;;24.50;;
8100;SDS011;4093;53.470;9.832;2022-10-14T11:39:50;35.27;;;23.60;;
8100;SDS011;4093;53.470;9.832;2022-10-14T11:42:28;33.83;;;23.60;;
8100;SDS011;4093;53.470;9.832;2022-10-14T11:45:12;37.40;;;23.80;;
8100;SDS011;4093;53.470;9.832;2022-10-14T11:47:57;34.40;;;22.57;;
8100;SDS011;4093;53.470;9.832;2022-10-14T11:50:35;32.80;;;23.27;;
8100;SDS011;4093;53.470;9.832;2022-10-14T11:53:08;32.63;;;23.63;;
8100;SDS011;4093;53.470;9.832;2022-10-14T11:55:41;33.10;;;22.13;;
8100;SDS011;4093;53.470;9.832;2022-10-14T11:58:16;33.83;;;22.13;;
8100;SDS011;4093;53.470;9.832;2022-10-14T12:00:50;29.00;;;20.90;;
8100;SDS011;4093;53.470;9.832;2022-10-14T12:03:23;28.10;;;20.40;;
8100;SDS011;4093;53.470;9.832;2022-10-14T12:05:58;25.00;;;17.67;;
8100;SDS011;4093;53.470;9.832;2022-10-14T12:08:38;23.33;;;16.10;;
8100;SDS011;4093;53.470;9.832;2022-10-14T12:11:13;21.60;;;15.57;;
8100;SDS011;4093;53.470;9.832;2022-10-14T12:13:51;20.23;;;14.90;;
8100;SDS011;4093;53.470;9.832;2022-10-14T12:16:23;23.20;;;15.73;;
8100;SDS011;4093;53.470;9.832;2022-10-14T12:18:52;20.87;;;15.47;;
8100;SDS011;4093;53.470;9.832;2022-10-14T12:21:23;21.10;;;14.63;;
8100;SDS011;4093;53.470;9.832;2022-10-14T12:23:57;21.13;;;16.07;;
8100;SDS011;4093;53.470;9.832;2022-10-14T12:26:39;20.23;;;15.47;;
8100;SDS011;4093;53.470;9.832;2022-10-14T12:29:17;23.23;;;15.60;;
8100;SDS011;4093;53.470;9.832;2022-10-14T12:31:48;19.30;;;14.10;;
8100;SDS011;4093;53.470;9.832;2022-10-14T12:34:32;20.40;;;14.73;;
8100;SDS011;4093;53.470;9.832;2022-10-14T12:40:21;18.65;;;13.10;;
8100;SDS011;4093;53.470;9.832;2022-10-14T12:42:53;19.80;;;14.00;;
8100;SDS011;4093;53.470;9.832;2022-10-14T12:45:26;17.40;;;13.82;;
8100;SDS011;4093;53.470;9.832;2022-10-14T12:48:00;17.83;;;13.55;;
8100;SDS011;4093;53.470;9.832;2022-10-14T12:50:30;17.70;;;13.82;;
8100;SDS011;4093;53.470;9.832;2022-10-14T12:53:02;17.38;;;13.48;;
8100;SDS011;4093;53.470;9.832;2022-10-14T12:55:35;13.32;;;11.00;;
8100;SDS011;4093;53.470;9.832;2022-10-14T12:58:15;17.40;;;12.50;;
8100;SDS011;4093;53.470;9.832;2022-10-14T13:00:56;16.33;;;12.82;;
8100;SDS011;4093;53.470;9.832;2022-10-14T13:03:27;17.00;;;12.45;;
8100;SDS011;4093;53.470;9.832;2022-10-14T13:06:24;17.02;;;12.32;;
8100;SDS011;4093;53.470;9.832;2022-10-14T13:11:46;13.77;;;11.15;;
8100;SDS011;4093;53.470;9.832;2022-10-14T13:15:00;15.55;;;11.80;;
8100;SDS011;4093;53.470;9.832;2022-10-14T13:17:43;15.32;;;12.00;;
8100;SDS011;4093;53.470;9.832;2022-10-14T13:23:26;15.75;;;11.00;;
8100;SDS011;4093;53.470;9.832;2022-10-14T13:26:05;18.00;;;13.25;;
8100;SDS011;4093;53.470;9.832;2022-10-14T13:28:41;14.48;;;11.38;;
8100;SDS011;4093;53.470;9.832;2022-10-14T13:31:17;13.10;;;10.40;;
8100;SDS011;4093;53.470;9.832;2022-10-14T13:33:51;13.25;;;11.30;;
8100;SDS011;4093;53.470;9.832;2022-10-14T13:36:25;13.20;;;11.10;;
8100;SDS011;4093;53.470;9.832;2022-10-14T13:38:59;12.93;;;11.35;;
8100;SDS011;4093;53.470;9.832;2022-10-14T13:41:28;12.40;;;10.38;;
8100;SDS011;4093;53.470;9.832;2022-10-14T13:44:00;11.93;;;10.05;;
8100;SDS011;4093;53.470;9.832;2022-10-14T13:46:30;13.60;;;11.10;;
8100;SDS011;4093;53.470;9.832;2022-10-14T13:49:03;14.10;;;11.02;;
8100;SDS011;4093;53.470;9.832;2022-10-14T13:51:38;14.38;;;11.05;;
8100;SDS011;4093;53.470;9.832;2022-10-14T13:54:15;13.75;;;10.80;;
8100;SDS011;4093;53.470;9.832;2022-10-14T13:56:57;13.60;;;11.18;;
8100;SDS011;4093;53.470;9.832;2022-10-14T13:59:47;14.48;;;11.32;;
8100;SDS011;4093;53.470;9.832;2022-10-14T14:02:34;16.35;;;11.40;;
8100;SDS011;4093;53.470;9.832;2022-10-14T14:05:09;13.95;;;10.60;;
8100;SDS011;4093;53.470;9.832;2022-10-14T14:07:42;14.05;;;10.95;;
8100;SDS011;4093;53.470;9.832;2022-10-14T14:10:31;14.35;;;10.65;;
8100;SDS011;4093;53.470;9.832;2022-10-14T14:13:11;10.45;;;9.38;;
8100;SDS011;4093;53.470;9.832;2022-10-14T14:15:40;12.67;;;10.00;;
8100;SDS011;4093;53.470;9.832;2022-10-14T14:18:22;11.75;;;9.25;;
8100;SDS011;4093;53.470;9.832;2022-10-14T14:21:10;10.97;;;9.63;;
8100;SDS011;4093;53.470;9.832;2022-10-14T14:23:47;10.07;;;8.50;;
8100;SDS011;4093;53.470;9.832;2022-10-14T14:26:16;10.48;;;8.70;;
8100;SDS011;4093;53.470;9.832;2022-10-14T14:28:45;10.50;;;8.47;;
8100;SDS011;4093;53.470;9.832;2022-10-14T14:31:15;9.47;;;8.50;;
8100;SDS011;4093;53.470;9.832;2022-10-14T14:34:12;12.63;;;9.63;;
8100;SDS011;4093;53.470;9.832;2022-10-14T14:36:44;13.43;;;9.33;;
8100;SDS011;4093;53.470;9.832;2022-10-14T14:39:20;10.83;;;8.97;;
8100;SDS011;4093;53.470;9.832;2022-10-14T14:41:50;11.83;;;9.33;;
8100;SDS011;4093;53.470;9.832;2022-10-14T14:44:19;12.07;;;9.17;;
8100;SDS011;4093;53.470;9.832;2022-10-14T14:46:52;11.67;;;9.47;;
8100;SDS011;4093;53.470;9.832;2022-10-14T14:49:24;12.60;;;9.27;;
8100;SDS011;4093;53.470;9.832;2022-10-14T14:51:55;10.23;;;8.90;;
8100;SDS011;4093;53.470;9.832;2022-10-14T14:54:24;11.90;;;9.53;;
8100;SDS011;4093;53.470;9.832;2022-10-14T14:56:54;12.53;;;9.60;;
8100;SDS011;4093;53.470;9.832;2022-10-14T14:59:27;11.37;;;9.17;;
8100;SDS011;4093;53.470;9.832;2022-10-14T15:01:58;10.43;;;9.00;;
8100;SDS011;4093;53.470;9.832;2022-10-14T15:04:29;11.93;;;9.17;;
8100;SDS011;4093;53.470;9.832;2022-10-14T15:07:02;12.75;;;10.10;;
8100;SDS011;4093;53.470;9.832;2022-10-14T15:09:35;11.40;;;8.70;;
8100;SDS011;4093;53.470;9.832;2022-10-14T15:12:05;11.90;;;8.80;;
8100;SDS011;4093;53.470;9.832;2022-10-14T15:14:43;10.97;;;8.70;;
8100;SDS011;4093;53.470;9.832;2022-10-14T15:17:28;11.73;;;9.43;;
8100;SDS011;4093;53.470;9.832;2022-10-14T15:19:59;11.88;;;8.73;;
8100;SDS011;4093;53.470;9.832;2022-10-14T15:22:48;13.27;;;9.73;;
8100;SDS011;4093;53.470;9.832;2022-10-14T15:25:21;12.68;;;9.85;;
8100;SDS011;4093;53.470;9.832;2022-10-14T15:27:51;12.27;;;10.07;;
8100;SDS011;4093;53.470;9.832;2022-10-14T15:30:30;12.83;;;10.07;;